Time;durP1;ratioP1;P1;durP2;ratioP2;P2;SDS_P1;SDS_P2;PMS_P1;PMS_P2;Temp;Humidity;BMP_temperature;BMP_pressure;BME280_temperature;BME280_humidity;BME280_pressure;Samples;Min_cycle;Max_cycle;Signal;HPM_P1;HPM_P2
2023/10/20 00:01:33;;;;;;;30.07;18.13;;;10.30;99.90;10.30;98367.00;;;;5005908;27;121647;-66
2023/10/20 00:03:59;;;;;;;28.17;16.47;;;10.30;99.90;10.30;98357.00;;;;5007061;27;102377;-66
2023/10/20 00:06:25;;;;;;;25.47;17.27;;;10.40;99.90;10.30;98341.00;;;;5004108;27;92884;-66
2023/10/20 00:08:51;;;;;;;33.43;16.57;;;10.30;99.90;10.20;98352.00;;;;4988902;27;124468;-65
2023/10/20 00:11:17;;;;;;;28.63;17.43;;;9.90;99.90;10.20;98352.00;;;;5006852;27;94056;-65
2023/10/20 00:13:43;;;;;;;28.47;20.00;;;10.30;99.90;10.20;98360.00;;;;5007815;27;92829;-66
2023/10/20 00:16:09;;;;;;;23.23;16.70;;;10.30;99.90;10.20;98351.00;;;;5001959;27;93053;-66
2023/10/20 00:18:35;;;;;;;29.33;16.80;;;10.30;99.90;10.20;98361.00;;;;5003905;27;124070;-65
2023/10/20 00:21:00;;;;;;;29.10;15.83;;;10.30;99.90;10.20;98360.00;;;;5008194;27;122516;-66
2023/10/20 00:23:27;;;;;;;28.17;17.70;;;10.50;99.90;10.20;98355.00;;;;5006747;27;94887;-66
2023/10/20 00:25:52;;;;;;;20.70;15.00;;;10.30;99.90;10.20;98345.00;;;;5004410;27;92776;-64
2023/10/20 00:28:18;;;;;;;27.50;18.73;;;10.30;99.90;10.20;98355.00;;;;5005839;27;122903;-65
2023/10/20 00:30:43;;;;;;;27.37;15.63;;;10.30;99.90;10.20;98351.00;;;;5007954;27;109414;-64
2023/10/20 00:33:09;;;;;;;23.63;16.43;;;10.20;99.90;10.20;98347.00;;;;5007210;27;112666;-65
2023/10/20 00:35:35;;;;;;;20.23;15.50;;;10.30;99.90;10.20;98336.00;;;;4994143;27;93970;-65
2023/10/20 00:38:01;;;;;;;27.23;16.63;;;10.30;99.90;10.20;98335.00;;;;4990156;27;93301;-66
2023/10/20 00:40:27;;;;;;;24.17;15.10;;;10.30;99.90;10.30;98326.00;;;;5001507;27;106738;-66
2023/10/20 00:42:53;;;;;;;26.03;16.57;;;10.30;99.90;10.30;98334.00;;;;5006089;27;94576;-66
2023/10/20 00:45:19;;;;;;;25.13;16.23;;;10.20;99.90;10.30;98336.00;;;;5003913;27;92557;-65
2023/10/20 00:47:45;;;;;;;24.10;15.80;;;10.30;99.90;10.30;98333.00;;;;5007680;27;93573;-65
2023/10/20 00:50:13;;;;;;;31.93;17.93;;;10.30;99.90;10.30;98325.00;;;;4990082;27;97323;-66
2023/10/20 00:52:49;;;;;;;30.47;16.67;;;10.30;99.90;10.20;98316.00;;;;5008275;27;92300;-65
2023/10/20 00:55:15;;;;;;;28.60;16.13;;;10.30;99.90;10.20;98312.00;;;;4987011;27;92819;-65
2023/10/20 00:57:46;;;;;;;18.50;15.73;;;10.30;99.90;10.30;98310.00;;;;5004055;27;108914;-65
2023/10/20 01:00:13;;;;;;;27.50;16.37;;;10.30;99.90;10.20;98319.00;;;;5007343;27;100128;-66
2023/10/20 01:02:39;;;;;;;22.30;17.30;;;10.30;99.90;10.20;98309.00;;;;5007090;27;93186;-65
2023/10/20 01:05:05;;;;;;;21.43;15.63;;;10.30;99.90;10.20;98308.00;;;;4991812;27;92985;-65
2023/10/20 01:07:32;;;;;;;23.60;16.83;;;10.30;99.90;10.20;98308.00;;;;5004603;27;92881;-65
2023/10/20 01:10:05;;;;;;;25.63;14.37;;;11.60;99.90;10.20;98297.00;;;;5005459;27;93304;-65
2023/10/20 01:12:31;;;;;;;20.43;15.10;;;10.30;99.90;10.20;98305.00;;;;5009216;27;92797;-65
2023/10/20 01:14:59;;;;;;;23.63;15.30;;;10.30;99.90;10.30;98308.00;;;;5007219;27;92873;-65
2023/10/20 01:17:26;;;;;;;23.63;15.83;;;10.30;99.90;10.20;98299.00;;;;4983854;27;92625;-65
2023/10/20 01:19:52;;;;;;;26.30;15.33;;;10.30;99.90;10.30;98302.00;;;;5009384;27;92881;-65
2023/10/20 01:22:18;;;;;;;21.53;15.53;;;10.30;99.90;10.30;98297.00;;;;5006613;27;106218;-66
2023/10/20 01:24:43;;;;;;;28.60;17.50;;;10.30;99.90;10.30;98286.00;;;;5007872;27;108454;-65
2023/10/20 01:27:09;;;;;;;23.67;15.80;;;10.30;99.90;10.30;98296.00;;;;5006214;27;122180;-67
2023/10/20 01:29:34;;;;;;;20.67;14.93;;;10.30;99.90;10.20;98288.00;;;;4992042;27;122866;-66
2023/10/20 01:32:00;;;;;;;21.57;16.93;;;10.30;99.90;10.30;98275.00;;;;5002666;27;111621;-66
2023/10/20 01:34:26;;;;;;;24.30;16.93;;;10.30;99.90;10.20;98274.00;;;;5006595;27;92904;-64
2023/10/20 01:36:52;;;;;;;22.00;15.70;;;10.30;99.90;10.20;98274.00;;;;5006771;27;93666;-66
2023/10/20 01:39:17;;;;;;;25.13;17.57;;;10.30;99.90;10.20;98262.00;;;;5005298;27;123271;-65
2023/10/20 01:41:43;;;;;;;28.50;16.47;;;10.30;99.90;10.20;98263.00;;;;5005313;27;110584;-67
2023/10/20 01:44:09;;;;;;;23.77;16.03;;;10.30;99.90;10.20;98260.00;;;;4986547;27;108940;-65
2023/10/20 01:46:35;;;;;;;22.67;15.47;;;10.30;99.90;10.20;98251.00;;;;5002392;27;122146;-65
2023/10/20 01:49:00;;;;;;;25.73;16.53;;;10.20;99.90;10.20;98253.00;;;;5005881;27;122866;-64
2023/10/20 01:51:26;;;;;;;25.17;17.10;;;10.20;99.90;10.20;98259.00;;;;5002221;27;113812;-65
2023/10/20 01:53:52;;;;;;;30.67;17.97;;;10.20;99.90;10.20;98242.00;;;;5006023;27;109575;-65
2023/10/20 01:56:18;;;;;;;27.17;15.83;;;10.20;99.90;10.10;98226.00;;;;5007809;27;120109;-64
2023/10/20 01:58:43;;;;;;;23.70;14.80;;;10.20;99.90;10.10;98225.00;;;;5003983;27;94566;-64
2023/10/20 02:01:09;;;;;;;25.70;16.07;;;9.90;99.90;10.10;98230.00;;;;5006221;27;112410;-64
2023/10/20 02:03:35;;;;;;;24.70;15.03;;;10.20;99.90;10.10;98223.00;;;;5005807;27;92937;-65
2023/10/20 02:06:01;;;;;;;21.00;14.70;;;10.50;99.90;10.10;98228.00;;;;5006959;27;122170;-64
2023/10/20 02:08:27;;;;;;;23.50;14.80;;;10.10;99.90;10.10;98217.00;;;;5005378;27;92866;-63
2023/10/20 02:10:52;;;;;;;29.13;16.07;;;10.10;99.90;10.10;98204.00;;;;5005793;27;93270;-63
2023/10/20 02:13:18;;;;;;;23.00;15.63;;;10.10;99.90;10.10;98209.00;;;;4988169;27;94451;-64
2023/10/20 02:15:48;;;;;;;24.03;14.47;;;10.10;99.90;10.00;98216.00;;;;5004235;27;96787;-64
2023/10/20 02:18:14;;;;;;;23.80;15.13;;;10.60;99.90;10.10;98213.00;;;;5005582;27;93148;-64
2023/10/20 02:20:40;;;;;;;25.40;15.60;;;10.10;99.90;10.10;98222.00;;;;5004151;27;92972;-64
2023/10/20 02:23:07;;;;;;;23.77;15.30;;;10.10;99.90;10.00;98216.00;;;;4991263;27;108299;-64
2023/10/20 02:25:45;;;;;;;28.20;14.97;;;10.10;99.90;10.00;98213.00;;;;5005204;27;93566;-65
2023/10/20 02:28:10;;;;;;;25.57;15.23;;;10.10;99.90;10.00;98220.00;;;;5001925;27;92658;-64
2023/10/20 02:30:36;;;;;;;45.90;16.00;;;10.10;99.90;10.00;98216.00;;;;4988674;27;113145;-66
2023/10/20 02:33:02;;;;;;;21.37;12.93;;;10.00;99.90;10.00;98214.00;;;;5002965;27;92674;-65
2023/10/20 02:35:28;;;;;;;18.33;13.43;;;10.00;99.90;10.00;98216.00;;;;5002865;27;94790;-63
2023/10/20 02:37:53;;;;;;;20.00;13.77;;;10.00;99.90;10.00;98206.00;;;;5004543;27;94055;-65
2023/10/20 02:40:19;;;;;;;27.33;14.57;;;10.00;99.90;10.00;98206.00;;;;5004499;27;112469;-64
2023/10/20 02:42:45;;;;;;;22.50;16.30;;;9.50;99.90;10.00;98201.00;;;;4989569;27;107247;-65
2023/10/20 02:45:11;;;;;;;20.33;12.23;;;10.00;99.90;10.00;98205.00;;;;5004390;27;93014;-67
2023/10/20 02:47:37;;;;;;;22.70;14.50;;;10.00;99.90;9.90;98205.00;;;;5001495;27;92787;-66
2023/10/20 02:50:03;;;;;;;25.80;13.90;;;10.60;99.90;9.90;98193.00;;;;5007489;27;92601;-66
2023/10/20 02:52:29;;;;;;;20.20;13.43;;;10.00;99.90;9.90;98185.00;;;;5005079;27;92923;-67
2023/10/20 02:54:55;;;;;;;20.33;12.23;;;10.00;99.90;9.90;98185.00;;;;5002530;27;122080;-65
2023/10/20 02:57:21;;;;;;;22.93;12.70;;;9.50;99.90;9.90;98185.00;;;;5003702;27;92753;-67
2023/10/20 02:59:48;;;;;;;26.07;13.50;;;10.00;99.90;9.90;98191.00;;;;5007184;27;93003;-66
2023/10/20 03:02:20;;;;;;;22.87;10.70;;;10.00;99.90;9.90;98177.00;;;;5008233;27;93882;-64
2023/10/20 03:04:46;;;;;;;22.00;13.00;;;10.00;99.90;9.90;98194.00;;;;5006868;27;93578;-66
2023/10/20 03:07:12;;;;;;;15.73;10.53;;;11.40;99.90;9.90;98188.00;;;;5004921;27;92796;-66
2023/10/20 03:09:38;;;;;;;18.33;11.33;;;9.90;99.90;9.80;98185.00;;;;5002968;27;92769;-66
2023/10/20 03:12:04;;;;;;;22.53;11.93;;;9.90;99.90;9.80;98183.00;;;;5001632;27;108926;-66
2023/10/20 03:14:31;;;;;;;16.60;10.70;;;10.90;99.90;9.80;98176.00;;;;5004619;27;97616;-67
2023/10/20 03:16:57;;;;;;;14.07;11.03;;;9.80;99.90;9.80;98173.00;;;;5003443;27;92556;-67
2023/10/20 03:19:22;;;;;;;15.00;9.47;;;9.80;99.90;9.70;98185.00;;;;4994310;27;92324;-66
2023/10/20 03:21:52;;;;;;;20.57;10.47;;;9.80;99.90;9.70;98188.00;;;;4985139;27;102822;-67
2023/10/20 03:24:17;;;;;;;14.23;10.83;;;9.70;99.90;9.70;98182.00;;;;5003250;27;93737;-67
2023/10/20 03:26:43;;;;;;;14.40;11.60;;;9.70;99.90;9.60;98184.00;;;;4986426;27;123571;-66
2023/10/20 03:29:09;;;;;;;14.33;9.07;;;9.70;99.90;9.60;98178.00;;;;4971472;27;92937;-67
2023/10/20 03:31:35;;;;;;;13.27;10.63;;;9.70;99.90;9.60;98182.00;;;;5005080;27;92890;-67
2023/10/20 03:34:01;;;;;;;17.43;10.00;;;10.00;99.90;9.60;98177.00;;;;5005807;27;93597;-67
2023/10/20 03:36:27;;;;;;;17.37;9.77;;;9.60;99.90;9.60;98171.00;;;;5006481;27;121433;-69
2023/10/20 03:38:53;;;;;;;14.40;9.37;;;9.70;99.90;9.50;98166.00;;;;5008520;27;94255;-67
2023/10/20 03:41:19;;;;;;;16.07;10.27;;;9.60;99.90;9.50;98169.00;;;;5007201;27;108638;-67
2023/10/20 03:43:44;;;;;;;11.37;10.17;;;9.50;99.90;9.50;98158.00;;;;5009454;27;93013;-69
2023/10/20 03:46:13;;;;;;;16.13;11.00;;;9.60;99.90;9.50;98160.00;;;;5008172;27;121142;-68
2023/10/20 03:48:40;;;;;;;12.07;9.70;;;9.50;99.90;9.50;98152.00;;;;4978350;27;92868;-69
2023/10/20 03:51:13;;;;;;;15.50;10.77;;;9.50;99.90;9.40;98147.00;;;;4988147;27;93857;-67
2023/10/20 03:53:52;;;;;;;17.30;11.10;;;9.50;99.90;9.40;98136.00;;;;5007598;27;94448;-68
2023/10/20 03:56:22;;;;;;;12.13;9.00;;;9.40;99.90;9.40;98147.00;;;;5005466;27;92747;-68
2023/10/20 03:58:47;;;;;;;12.77;9.10;;;9.40;99.90;9.30;98156.00;;;;5010058;27;92781;-68
2023/10/20 04:01:13;;;;;;;18.93;10.23;;;9.40;99.90;9.30;98174.00;;;;4980609;27;109021;-68
2023/10/20 04:03:40;;;;;;;19.57;9.63;;;9.40;99.90;9.30;98176.00;;;;5003154;27;100918;-68
2023/10/20 04:06:08;;;;;;;13.50;8.87;;;9.40;99.90;9.30;98172.00;;;;5005856;27;93932;-69
2023/10/20 04:08:34;;;;;;;10.57;8.40;;;9.30;99.90;9.20;98165.00;;;;4991951;27;92154;-69
2023/10/20 04:11:00;;;;;;;10.97;8.67;;;9.80;99.90;9.20;98162.00;;;;5011703;27;93113;-69
2023/10/20 04:13:29;;;;;;;15.17;9.90;;;9.30;99.90;9.10;98160.00;;;;5007400;27;93387;-68
2023/10/20 04:15:55;;;;;;;14.87;8.47;;;9.20;99.90;9.10;98157.00;;;;5004447;27;93901;-68
2023/10/20 04:18:22;;;;;;;14.80;8.90;;;9.10;99.90;9.10;98155.00;;;;5005634;27;92933;-71
2023/10/20 04:20:48;;;;;;;12.13;8.10;;;9.10;99.90;9.10;98148.00;;;;5006333;27;92795;-69
2023/10/20 04:23:16;;;;;;;13.20;7.50;;;9.10;99.90;9.00;98143.00;;;;5009381;27;92526;-69
2023/10/20 04:25:52;;;;;;;11.83;8.50;;;9.10;99.90;9.00;98130.00;;;;4989488;27;93753;-68
2023/10/20 04:28:20;;;;;;;16.17;9.37;;;9.00;99.90;9.00;98128.00;;;;4983523;27;92997;-71
2023/10/20 04:42:26;;;;;;;11.40;8.43;;;9.00;99.90;8.80;98116.00;;;;4985634;27;93961;-68
2023/10/20 04:57:53;;;;;;;10.07;7.67;;;8.80;99.90;8.70;98107.00;;;;4971124;27;92720;-68
2023/10/20 05:07:57;;;;;;;13.30;8.20;;;8.70;99.90;8.60;98096.00;;;;4963614;28;94278;-65
2023/10/20 05:10:23;;;;;;;10.77;7.20;;;8.70;99.90;8.60;98090.00;;;;4980868;27;92816;-65
2023/10/20 05:12:50;;;;;;;12.20;8.73;;;8.70;99.90;8.60;98104.00;;;;4967666;28;92931;-66
2023/10/20 05:15:17;;;;;;;11.77;7.53;;;8.70;99.90;8.60;98100.00;;;;4981243;27;94263;-66
2023/10/20 05:17:43;;;;;;;11.17;6.90;;;8.70;99.90;8.60;98100.00;;;;4975058;27;94672;-66
2023/10/20 05:20:19;;;;;;;13.97;8.27;;;8.70;99.90;8.70;98093.00;;;;4969362;28;100015;-66
2023/10/20 05:22:47;;;;;;;12.93;7.53;;;8.70;99.90;8.60;98085.00;;;;4985702;27;92825;-66
2023/10/20 05:25:14;;;;;;;5.93;5.30;;;8.70;99.90;8.60;98089.00;;;;4985602;27;93151;-66
2023/10/20 05:27:40;;;;;;;10.13;6.73;;;8.70;99.90;8.60;98077.00;;;;4993699;27;93381;-66
2023/10/20 05:30:07;;;;;;;11.70;7.27;;;8.70;99.90;8.60;98057.00;;;;4991074;27;94200;-65
2023/10/20 05:32:37;;;;;;;9.57;6.70;;;8.70;99.90;8.60;98076.00;;;;4999083;27;93874;-66
2023/10/20 05:35:04;;;;;;;11.73;7.37;;;8.70;99.90;8.60;98058.00;;;;5005065;27;95528;-66
2023/10/20 05:37:31;;;;;;;11.43;7.47;;;8.70;99.90;8.60;98058.00;;;;4990680;27;92614;-66
2023/10/20 05:39:56;;;;;;;11.10;6.47;;;8.60;99.90;8.60;98060.00;;;;5003775;27;101495;-66
2023/10/20 05:42:23;;;;;;;14.00;8.30;;;8.70;99.90;8.50;98044.00;;;;5004231;27;92496;-66
2023/10/20 05:45:02;;;;;;;7.73;6.80;;;8.30;99.90;8.50;98056.00;;;;4985424;27;92909;-66
2023/10/20 05:47:28;;;;;;;9.60;6.77;;;8.60;99.90;8.50;98062.00;;;;5004300;27;92777;-65
2023/10/20 05:49:56;;;;;;;11.17;7.90;;;8.60;99.90;8.50;98060.00;;;;4993700;27;92318;-65
2023/10/20 05:52:22;;;;;;;8.17;7.33;;;8.60;99.90;8.50;98064.00;;;;5004448;27;94091;-64
2023/10/20 05:54:49;;;;;;;13.97;8.17;;;8.60;99.90;8.50;98077.00;;;;4988580;27;120997;-66
2023/10/20 05:57:16;;;;;;;10.23;7.57;;;8.50;99.90;8.50;98067.00;;;;5002834;27;93911;-65
2023/10/20 05:59:42;;;;;;;8.10;7.27;;;8.50;99.90;8.50;98071.00;;;;5004864;27;92896;-65
2023/10/20 06:02:08;;;;;;;13.67;7.73;;;9.10;99.90;8.50;98070.00;;;;5004095;27;93019;-66
2023/10/20 06:04:34;;;;;;;12.27;8.07;;;8.60;99.90;8.50;98057.00;;;;5002777;27;92622;-66
2023/10/20 06:07:01;;;;;;;11.70;8.37;;;8.50;99.90;8.50;98060.00;;;;5006441;27;95024;-65
2023/10/20 06:09:27;;;;;;;10.57;6.53;;;8.50;99.90;8.50;98056.00;;;;5005273;27;93020;-66
2023/10/20 06:11:53;;;;;;;10.47;7.13;;;9.30;99.90;8.50;98046.00;;;;4988575;27;93006;-64
2023/10/20 06:14:26;;;;;;;10.30;6.40;;;8.50;99.90;8.50;98061.00;;;;5005855;27;91883;-66
2023/10/20 06:16:52;;;;;;;11.87;9.33;;;8.50;99.90;8.50;98056.00;;;;5006889;27;93298;-65
2023/10/20 06:19:19;;;;;;;12.17;9.30;;;8.80;99.90;8.50;98055.00;;;;5004608;27;100992;-66
2023/10/20 06:21:45;;;;;;;11.23;7.93;;;8.60;99.90;8.50;98048.00;;;;5005916;27;93852;-66
2023/10/20 06:24:12;;;;;;;9.53;8.53;;;8.60;99.90;8.50;98037.00;;;;5001493;27;92972;-65
2023/10/20 06:26:38;;;;;;;12.77;8.93;;;8.60;99.90;8.50;98038.00;;;;4985096;27;93917;-66
2023/10/20 06:29:24;;;;;;;13.83;9.40;;;8.60;99.90;8.50;98027.00;;;;4985304;27;92858;-65
2023/10/20 06:32:09;;;;;;;10.47;8.67;;;8.60;99.90;8.50;98032.00;;;;4991615;27;92521;-65
2023/10/20 06:34:40;;;;;;;12.13;9.70;;;8.60;99.90;8.50;98039.00;;;;5002807;27;93173;-66
2023/10/20 06:37:08;;;;;;;9.63;8.67;;;8.60;99.90;8.50;98017.00;;;;4989205;27;95356;-65
2023/10/20 06:39:38;;;;;;;20.23;9.83;;;8.60;99.90;8.50;98018.00;;;;4994249;27;92433;-65
2023/10/20 06:42:06;;;;;;;15.50;9.73;;;8.60;99.90;8.50;98031.00;;;;5006311;27;92759;-67
2023/10/20 06:44:34;;;;;;;13.23;9.93;;;8.60;99.90;8.50;98031.00;;;;5007741;27;108108;-65
2023/10/20 06:46:59;;;;;;;12.63;9.23;;;8.60;99.90;8.50;98037.00;;;;5007484;27;94369;-63
2023/10/20 06:49:26;;;;;;;15.10;9.30;;;8.60;99.90;8.50;98018.00;;;;4991929;27;93706;-65
2023/10/20 06:51:52;;;;;;;11.60;8.87;;;8.60;99.90;8.50;98023.00;;;;5004838;27;92799;-65
2023/10/20 06:54:18;;;;;;;11.83;8.60;;;8.60;99.90;8.50;98015.00;;;;5006504;27;121955;-64
2023/10/20 06:56:44;;;;;;;11.97;9.77;;;8.50;99.90;8.50;98003.00;;;;4986905;27;122839;-65
2023/10/20 06:59:16;;;;;;;12.70;8.13;;;8.60;99.90;8.50;98006.00;;;;5003309;27;92819;-65
2023/10/20 07:01:42;;;;;;;12.77;9.93;;;8.50;99.90;8.50;98004.00;;;;5006412;27;92910;-64
2023/10/20 07:04:08;;;;;;;13.17;8.53;;;8.60;99.90;8.50;98009.00;;;;5004563;27;92137;-65
2023/10/20 07:06:36;;;;;;;12.07;9.10;;;8.60;99.90;8.50;98012.00;;;;5001965;27;92834;-65
2023/10/20 07:09:14;;;;;;;9.57;8.27;;;8.50;99.90;8.50;97998.00;;;;5008511;27;92979;-65
2023/10/20 07:11:41;;;;;;;14.47;9.77;;;8.50;99.90;8.40;97984.00;;;;5014510;27;93837;-66
2023/10/20 07:14:07;;;;;;;17.63;8.77;;;8.50;99.90;8.40;97964.00;;;;5000267;27;102111;-64
2023/10/20 07:16:33;;;;;;;12.27;8.87;;;8.50;99.90;8.50;97965.00;;;;4987711;27;120989;-64
2023/10/20 07:19:03;;;;;;;15.03;8.87;;;8.50;99.90;8.50;97968.00;;;;5007938;27;92965;-65
2023/10/20 07:21:30;;;;;;;12.50;9.00;;;10.00;99.90;8.50;97966.00;;;;4980950;27;93545;-64
2023/10/20 07:23:56;;;;;;;13.73;8.90;;;8.40;99.90;8.50;97972.00;;;;5008449;27;93541;-65
2023/10/20 07:26:22;;;;;;;14.17;9.03;;;8.90;99.90;8.50;97978.00;;;;5004341;27;116140;-65
2023/10/20 07:28:48;;;;;;;13.20;9.13;;;8.50;99.90;8.50;97976.00;;;;5010605;27;91971;-65
2023/10/20 07:31:17;;;;;;;14.90;10.47;;;8.50;99.90;8.50;97963.00;;;;5006912;27;107666;-65
2023/10/20 07:33:43;;;;;;;15.80;8.90;;;8.50;99.90;8.40;97960.00;;;;4991247;27;93711;-65
2023/10/20 07:36:09;;;;;;;14.50;9.00;;;8.50;99.90;8.50;97941.00;;;;4988930;27;93637;-65
2023/10/20 07:38:34;;;;;;;11.77;8.77;;;8.50;99.90;8.50;97943.00;;;;5011061;27;92595;-65
2023/10/20 07:41:09;;;;;;;14.20;9.43;;;8.50;99.90;8.50;97944.00;;;;5006666;27;108786;-66
2023/10/20 07:43:35;;;;;;;14.50;8.93;;;8.20;99.90;8.50;97949.00;;;;4999815;27;93742;-65
2023/10/20 07:46:01;;;;;;;11.53;9.40;;;8.50;99.90;8.50;97938.00;;;;4978289;27;111999;-65
2023/10/20 07:48:26;;;;;;;17.90;8.80;;;8.50;99.90;8.50;97929.00;;;;4994854;27;93071;-66
2023/10/20 07:50:52;;;;;;;15.53;8.57;;;8.50;99.90;8.50;97933.00;;;;4998567;27;108908;-65
2023/10/20 07:53:21;;;;;;;13.50;9.10;;;8.50;99.90;8.50;97931.00;;;;4995597;27;121816;-65
2023/10/20 07:55:47;;;;;;;12.27;8.23;;;8.60;99.90;8.50;97937.00;;;;5006402;27;121701;-65
2023/10/20 07:58:12;;;;;;;12.37;9.20;;;9.00;99.90;8.50;97931.00;;;;5003392;27;109956;-64
2023/10/20 08:00:38;;;;;;;11.90;8.93;;;8.60;99.90;8.50;97909.00;;;;4991075;27;110164;-66
2023/10/20 08:03:05;;;;;;;17.20;9.73;;;8.60;99.90;8.50;97915.00;;;;4998531;27;92804;-66
2023/10/20 08:05:35;;;;;;;20.17;10.60;;;8.60;99.90;8.50;97916.00;;;;5002125;27;93944;-66
2023/10/20 08:08:04;;;;;;;15.83;9.37;;;8.60;99.90;8.50;97925.00;;;;5006974;27;92810;-67
2023/10/20 08:10:31;;;;;;;15.87;10.93;;;8.60;99.90;8.50;97930.00;;;;5010430;27;92795;-65
2023/10/20 08:12:56;;;;;;;18.97;9.57;;;8.50;99.90;8.50;97926.00;;;;4994107;27;93040;-66
2023/10/20 08:15:26;;;;;;;14.97;9.37;;;8.60;99.90;8.50;97919.00;;;;5003792;27;92650;-68
2023/10/20 08:17:52;;;;;;;15.07;10.33;;;8.60;99.90;8.60;97928.00;;;;4997967;27;92474;-67
2023/10/20 08:20:18;;;;;;;16.70;9.60;;;8.60;99.90;8.60;97928.00;;;;5008357;27;94024;-66
2023/10/20 08:22:43;;;;;;;19.10;11.00;;;8.70;99.90;8.60;97926.00;;;;5005108;27;114966;-67
2023/10/20 08:25:09;;;;;;;21.17;11.47;;;8.60;99.90;8.60;97922.00;;;;4993889;27;118912;-66
2023/10/20 08:27:35;;;;;;;15.40;10.93;;;8.60;99.90;8.60;97912.00;;;;4998767;27;94038;-66
2023/10/20 08:30:01;;;;;;;22.20;12.37;;;8.60;99.90;8.60;97910.00;;;;5004612;27;107364;-66
2023/10/20 08:32:27;;;;;;;21.13;11.93;;;8.60;99.90;8.60;97920.00;;;;5009240;27;122733;-67
2023/10/20 08:34:53;;;;;;;17.17;10.20;;;8.70;99.90;8.60;97927.00;;;;5009694;27;95641;-66
2023/10/20 08:37:19;;;;;;;20.03;11.33;;;8.60;99.90;8.60;97923.00;;;;4993877;27;93134;-67
2023/10/20 08:39:45;;;;;;;24.17;10.80;;;8.70;99.90;8.60;97891.00;;;;5006311;27;92931;-66
2023/10/20 08:42:18;;;;;;;20.40;11.17;;;8.70;99.90;8.60;97892.00;;;;4971018;27;120504;-68
2023/10/20 08:44:45;;;;;;;23.80;12.33;;;8.10;99.90;8.60;97890.00;;;;5003205;27;93421;-66
2023/10/20 08:47:16;;;;;;;20.77;12.00;;;8.70;99.90;8.70;97905.00;;;;5005671;27;93035;-67
2023/10/20 08:49:43;;;;;;;20.87;10.83;;;8.70;99.90;8.70;97899.00;;;;5005260;27;93902;-67
2023/10/20 08:52:12;;;;;;;19.77;11.17;;;8.70;99.90;8.70;97905.00;;;;5003103;27;94654;-67
2023/10/20 08:54:38;;;;;;;22.37;11.43;;;8.70;99.90;8.70;97893.00;;;;4986180;27;92675;-67
2023/10/20 08:57:05;;;;;;;17.70;10.37;;;8.80;99.90;8.70;97885.00;;;;4991627;27;92905;-69
2023/10/20 08:59:31;;;;;;;23.87;10.37;;;8.70;99.90;8.70;97892.00;;;;4987510;27;93108;-68
2023/10/20 09:01:58;;;;;;;19.93;11.97;;;8.70;99.90;8.70;97874.00;;;;4991300;27;95435;-67
2023/10/20 09:04:26;;;;;;;21.97;14.07;;;9.70;99.90;8.70;97868.00;;;;4989506;27;94908;-68
2023/10/20 09:06:52;;;;;;;16.10;11.13;;;10.10;99.90;8.70;97871.00;;;;4985836;27;92398;-67
2023/10/20 09:09:19;;;;;;;27.53;11.93;;;8.80;99.90;8.80;97878.00;;;;5003285;27;92475;-68
2023/10/20 09:11:47;;;;;;;20.03;11.97;;;8.80;99.90;8.80;97876.00;;;;4991403;27;113761;-68
2023/10/20 09:14:16;;;;;;;26.87;14.00;;;8.80;99.90;8.80;97878.00;;;;4970701;27;94141;-67
2023/10/20 09:16:42;;;;;;;25.20;11.80;;;8.80;99.90;8.80;97854.00;;;;4987899;27;92778;-68
2023/10/20 09:19:12;;;;;;;18.77;11.20;;;8.80;99.90;8.80;97845.00;;;;4994386;27;109242;-67
2023/10/20 09:21:39;;;;;;;17.53;9.97;;;8.80;99.90;8.80;97854.00;;;;5003385;27;92652;-68
2023/10/20 09:24:07;;;;;;;16.77;10.10;;;8.80;99.90;8.80;97836.00;;;;4973417;27;94408;-67
2023/10/20 09:26:39;;;;;;;14.00;10.50;;;8.80;99.90;8.80;97824.00;;;;5006240;27;92759;-69
2023/10/20 09:29:06;;;;;;;20.57;11.80;;;8.80;99.90;8.80;97836.00;;;;4987066;27;95751;-67
2023/10/20 09:31:33;;;;;;;24.03;11.00;;;8.90;99.90;8.80;97821.00;;;;4974960;27;106418;-66
2023/10/20 09:33:59;;;;;;;17.80;10.57;;;9.80;99.90;8.80;97803.00;;;;5003413;27;108765;-66
2023/10/20 09:36:30;;;;;;;17.13;10.43;;;8.90;99.90;8.80;97785.00;;;;4984331;27;94382;-66
2023/10/20 09:38:58;;;;;;;16.27;10.80;;;8.90;99.90;8.80;97798.00;;;;4987586;27;93660;-67
2023/10/20 09:41:29;;;;;;;16.17;10.70;;;8.90;99.90;8.90;97786.00;;;;4989244;27;92577;-66
2023/10/20 09:44:06;;;;;;;20.47;12.83;;;8.90;99.90;8.90;97780.00;;;;4989366;27;92614;-65
2023/10/20 09:46:55;;;;;;;20.17;11.43;;;9.00;99.90;9.00;97789.00;;;;4985938;27;92741;-67
2023/10/20 09:49:26;;;;;;;18.23;10.37;;;9.00;99.90;8.90;97797.00;;;;4977085;27;92768;-66
2023/10/20 09:51:57;;;;;;;24.80;14.97;;;9.00;99.90;8.90;97809.00;;;;4989863;27;108066;-66
2023/10/20 09:54:32;;;;;;;22.30;12.70;;;9.00;99.90;8.90;97809.00;;;;4994489;27;93636;-65
2023/10/20 09:56:58;;;;;;;18.90;11.93;;;9.00;99.90;9.00;97812.00;;;;4966881;27;92014;-65
2023/10/20 09:59:27;;;;;;;20.03;11.73;;;9.00;99.90;9.00;97819.00;;;;4978504;27;93166;-65
2023/10/20 10:01:54;;;;;;;17.50;11.90;;;9.00;99.90;9.00;97789.00;;;;4979433;28;94269;-65
2023/10/20 10:04:37;;;;;;;17.03;10.50;;;9.00;99.90;9.00;97798.00;;;;5006489;27;93370;-65
2023/10/20 10:07:04;;;;;;;16.67;11.37;;;9.00;99.90;9.00;97790.00;;;;5004019;27;92698;-65
2023/10/20 10:09:52;;;;;;;21.07;12.03;;;9.40;99.90;9.00;97779.00;;;;5003097;27;92543;-66
2023/10/20 10:12:20;;;;;;;14.23;10.97;;;9.10;99.90;9.10;97785.00;;;;5006529;27;92953;-65
2023/10/20 10:15:07;;;;;;;17.47;11.87;;;9.10;99.90;9.00;97768.00;;;;5007962;27;94194;-65
2023/10/20 10:17:48;;;;;;;18.40;12.03;;;9.10;99.90;9.00;97752.00;;;;5005251;27;92557;-65
2023/10/20 10:20:28;;;;;;;15.57;11.07;;;10.50;99.90;9.00;97749.00;;;;5004061;27;92616;-66
2023/10/20 10:23:06;;;;;;;22.40;13.77;;;9.10;99.90;9.10;97757.00;;;;5005717;27;92133;-66
2023/10/20 10:25:42;;;;;;;19.20;12.37;;;9.40;99.90;9.10;97766.00;;;;4993177;27;92662;-67
2023/10/20 10:28:13;;;;;;;18.63;13.10;;;9.20;99.90;9.10;97771.00;;;;4965507;27;93047;-66
2023/10/20 10:30:39;;;;;;;21.00;11.83;;;9.20;99.90;9.10;97776.00;;;;4983914;27;93796;-67
2023/10/20 10:33:11;;;;;;;19.57;10.27;;;9.20;99.90;9.10;97775.00;;;;4966875;28;93250;-68
2023/10/20 10:35:38;;;;;;;18.63;11.07;;;9.20;99.90;9.20;97773.00;;;;4954345;28;93063;-64
2023/10/20 10:38:22;;;;;;;18.73;12.30;;;9.20;99.90;9.10;97781.00;;;;4981995;27;92913;-65
2023/10/20 10:40:55;;;;;;;20.13;11.67;;;9.20;99.90;9.20;97783.00;;;;4985477;27;94383;-66
2023/10/20 10:43:21;;;;;;;15.23;10.23;;;9.20;99.90;9.20;97793.00;;;;4987258;27;93082;-66
2023/10/20 10:45:53;;;;;;;20.47;12.43;;;9.30;99.90;9.20;97810.00;;;;4987356;27;93485;-66
2023/10/20 10:48:24;;;;;;;17.17;11.60;;;9.30;99.90;9.20;97814.00;;;;4987473;28;92354;-67
2023/10/20 10:50:51;;;;;;;20.40;13.00;;;9.20;99.90;9.20;97813.00;;;;4987161;27;92919;-68
2023/10/20 10:53:16;;;;;;;21.77;10.93;;;9.30;99.90;9.20;97813.00;;;;4992240;27;93967;-70
2023/10/20 10:55:43;;;;;;;20.17;10.87;;;9.30;99.90;9.20;97820.00;;;;4984888;27;94422;-69
2023/10/20 10:58:14;;;;;;;57.73;34.00;;;9.20;99.90;9.20;97816.00;;;;4956192;28;92983;-70
2023/10/20 11:00:42;;;;;;;29.37;19.03;;;9.20;99.90;9.20;97807.00;;;;4985987;27;92990;-71
2023/10/20 11:03:09;;;;;;;46.57;31.27;;;9.20;99.90;9.20;97813.00;;;;4965772;27;108108;-68
2023/10/20 11:05:35;;;;;;;23.43;13.83;;;9.20;99.90;9.20;97812.00;;;;4972563;27;114401;-69
2023/10/20 11:08:12;;;;;;;31.67;17.67;;;9.20;99.90;9.10;97803.00;;;;4976667;28;92923;-66
2023/10/20 11:10:45;;;;;;;18.43;11.20;;;9.20;99.90;9.10;97806.00;;;;4988893;27;92868;-66
2023/10/20 11:13:16;;;;;;;16.33;10.53;;;9.10;99.90;9.20;97805.00;;;;4986696;27;92348;-64
2023/10/20 11:15:42;;;;;;;19.40;13.63;;;9.20;99.90;9.20;97805.00;;;;4987795;27;92816;-66
2023/10/20 11:18:12;;;;;;;18.23;12.23;;;9.20;99.90;9.20;97815.00;;;;4968746;28;111773;-67
2023/10/20 11:20:41;;;;;;;14.60;11.13;;;9.20;99.90;9.20;97820.00;;;;4990586;27;93769;-65
2023/10/20 11:23:08;;;;;;;19.40;11.57;;;9.80;99.90;9.20;97829.00;;;;4969164;28;94802;-66
2023/10/20 11:25:34;;;;;;;15.70;11.57;;;9.30;99.90;9.20;97827.00;;;;4984911;27;92761;-66
2023/10/20 11:28:02;;;;;;;15.53;10.63;;;9.30;99.90;9.20;97814.00;;;;5003169;27;105571;-67